sensor_id;sensor_type;location;lat;lon;timestamp;P1;durP1;ratioP1;P2;durP2;ratioP2
7471;SDS011;3777;48.722;8.110;2024-03-17T00:00:21;7.60;;;6.10;;
7471;SDS011;3777;48.722;8.110;2024-03-17T00:02:48;8.60;;;6.00;;
7471;SDS011;3777;48.722;8.110;2024-03-17T00:05:15;8.77;;;6.47;;
7471;SDS011;3777;48.722;8.110;2024-03-17T00:07:45;7.40;;;6.20;;
7471;SDS011;3777;48.722;8.110;2024-03-17T00:10:12;7.23;;;6.00;;
7471;SDS011;3777;48.722;8.110;2024-03-17T00:12:38;6.30;;;5.70;;
7471;SDS011;3777;48.722;8.110;2024-03-17T00:15:05;8.43;;;6.33;;
7471;SDS011;3777;48.722;8.110;2024-03-17T00:17:32;7.23;;;5.87;;
7471;SDS011;3777;48.722;8.110;2024-03-17T00:19:59;11.03;;;6.27;;
7471;SDS011;3777;48.722;8.110;2024-03-17T00:22:29;7.77;;;6.97;;
7471;SDS011;3777;48.722;8.110;2024-03-17T00:25:01;8.40;;;7.47;;
7471;SDS011;3777;48.722;8.110;2024-03-17T00:27:28;7.37;;;6.13;;
7471;SDS011;3777;48.722;8.110;2024-03-17T00:29:55;7.03;;;6.30;;
7471;SDS011;3777;48.722;8.110;2024-03-17T00:32:21;7.40;;;6.70;;
7471;SDS011;3777;48.722;8.110;2024-03-17T00:34:49;7.93;;;6.27;;
7471;SDS011;3777;48.722;8.110;2024-03-17T00:37:14;8.23;;;6.13;;
7471;SDS011;3777;48.722;8.110;2024-03-17T00:39:42;6.80;;;6.10;;
7471;SDS011;3777;48.722;8.110;2024-03-17T00:42:10;8.23;;;6.43;;
7471;SDS011;3777;48.722;8.110;2024-03-17T00:44:39;10.13;;;7.40;;
7471;SDS011;3777;48.722;8.110;2024-03-17T00:47:06;7.23;;;6.37;;
7471;SDS011;3777;48.722;8.110;2024-03-17T00:49:34;8.67;;;6.43;;
7471;SDS011;3777;48.722;8.110;2024-03-17T00:52:00;8.00;;;6.23;;
7471;SDS011;3777;48.722;8.110;2024-03-17T00:54:27;7.47;;;6.10;;
7471;SDS011;3777;48.722;8.110;2024-03-17T00:56:53;7.57;;;6.27;;
7471;SDS011;3777;48.722;8.110;2024-03-17T00:59:22;9.77;;;6.33;;
7471;SDS011;3777;48.722;8.110;2024-03-17T01:01:48;7.47;;;6.53;;
7471;SDS011;3777;48.722;8.110;2024-03-17T01:04:15;7.00;;;6.30;;
7471;SDS011;3777;48.722;8.110;2024-03-17T01:06:41;7.93;;;6.70;;
7471;SDS011;3777;48.722;8.110;2024-03-17T01:09:08;7.87;;;5.90;;
7471;SDS011;3777;48.722;8.110;2024-03-17T01:11:34;8.27;;;6.83;;
7471;SDS011;3777;48.722;8.110;2024-03-17T01:14:01;7.27;;;6.30;;
7471;SDS011;3777;48.722;8.110;2024-03-17T01:16:29;7.90;;;6.83;;
7471;SDS011;3777;48.722;8.110;2024-03-17T01:18:56;8.87;;;6.20;;
7471;SDS011;3777;48.722;8.110;2024-03-17T01:21:22;7.60;;;6.80;;
7471;SDS011;3777;48.722;8.110;2024-03-17T01:23:49;9.70;;;7.13;;
7471;SDS011;3777;48.722;8.110;2024-03-17T01:26:15;7.20;;;6.50;;
7471;SDS011;3777;48.722;8.110;2024-03-17T01:28:42;7.40;;;6.57;;
7471;SDS011;3777;48.722;8.110;2024-03-17T01:31:08;8.97;;;6.27;;
7471;SDS011;3777;48.722;8.110;2024-03-17T01:33:37;8.10;;;6.60;;
7471;SDS011;3777;48.722;8.110;2024-03-17T01:36:03;7.73;;;6.93;;
7471;SDS011;3777;48.722;8.110;2024-03-17T01:38:30;9.83;;;7.20;;
7471;SDS011;3777;48.722;8.110;2024-03-17T01:40:57;8.87;;;7.43;;
7471;SDS011;3777;48.722;8.110;2024-03-17T01:43:24;7.67;;;6.87;;
7471;SDS011;3777;48.722;8.110;2024-03-17T01:45:52;10.27;;;7.47;;
7471;SDS011;3777;48.722;8.110;2024-03-17T01:48:19;7.57;;;6.70;;
7471;SDS011;3777;48.722;8.110;2024-03-17T01:50:46;8.47;;;6.80;;
7471;SDS011;3777;48.722;8.110;2024-03-17T01:53:15;8.33;;;7.23;;
7471;SDS011;3777;48.722;8.110;2024-03-17T01:55:42;7.83;;;7.03;;
7471;SDS011;3777;48.722;8.110;2024-03-17T01:58:10;7.30;;;6.53;;
7471;SDS011;3777;48.722;8.110;2024-03-17T02:00:37;9.43;;;6.27;;
7471;SDS011;3777;48.722;8.110;2024-03-17T02:03:04;10.00;;;7.07;;
7471;SDS011;3777;48.722;8.110;2024-03-17T02:05:31;7.67;;;6.60;;
7471;SDS011;3777;48.722;8.110;2024-03-17T02:08:00;6.97;;;6.27;;
7471;SDS011;3777;48.722;8.110;2024-03-17T02:10:26;8.63;;;7.10;;
7471;SDS011;3777;48.722;8.110;2024-03-17T02:12:53;7.43;;;6.67;;
7471;SDS011;3777;48.722;8.110;2024-03-17T02:15:20;8.23;;;6.33;;
7471;SDS011;3777;48.722;8.110;2024-03-17T02:17:47;7.80;;;6.37;;
7471;SDS011;3777;48.722;8.110;2024-03-17T02:20:13;9.23;;;6.47;;
7471;SDS011;3777;48.722;8.110;2024-03-17T02:22:42;6.60;;;6.00;;
7471;SDS011;3777;48.722;8.110;2024-03-17T02:25:08;6.50;;;5.90;;
7471;SDS011;3777;48.722;8.110;2024-03-17T02:27:36;7.43;;;6.40;;
7471;SDS011;3777;48.722;8.110;2024-03-17T02:30:02;8.07;;;6.57;;
7471;SDS011;3777;48.722;8.110;2024-03-17T02:32:32;8.27;;;6.40;;
7471;SDS011;3777;48.722;8.110;2024-03-17T02:34:58;7.50;;;6.67;;
7471;SDS011;3777;48.722;8.110;2024-03-17T02:37:25;8.07;;;6.53;;
7471;SDS011;3777;48.722;8.110;2024-03-17T02:39:53;8.17;;;7.03;;
7471;SDS011;3777;48.722;8.110;2024-03-17T02:42:20;7.60;;;6.73;;
7471;SDS011;3777;48.722;8.110;2024-03-17T02:44:46;8.60;;;7.03;;
7471;SDS011;3777;48.722;8.110;2024-03-17T02:47:13;8.53;;;7.30;;
7471;SDS011;3777;48.722;8.110;2024-03-17T02:49:40;8.97;;;8.07;;
7471;SDS011;3777;48.722;8.110;2024-03-17T02:52:09;11.20;;;8.30;;
7471;SDS011;3777;48.722;8.110;2024-03-17T02:54:37;8.53;;;7.63;;
7471;SDS011;3777;48.722;8.110;2024-03-17T02:57:06;9.83;;;8.83;;
7471;SDS011;3777;48.722;8.110;2024-03-17T02:59:33;9.33;;;8.33;;
7471;SDS011;3777;48.722;8.110;2024-03-17T03:02:00;10.50;;;8.27;;
7471;SDS011;3777;48.722;8.110;2024-03-17T03:04:27;9.63;;;8.63;;
7471;SDS011;3777;48.722;8.110;2024-03-17T03:06:55;9.53;;;7.77;;
7471;SDS011;3777;48.722;8.110;2024-03-17T03:09:22;10.23;;;8.07;;
7471;SDS011;3777;48.722;8.110;2024-03-17T03:11:56;9.87;;;7.70;;
7471;SDS011;3777;48.722;8.110;2024-03-17T03:14:24;8.53;;;7.60;;
7471;SDS011;3777;48.722;8.110;2024-03-17T03:16:51;10.03;;;7.90;;
7471;SDS011;3777;48.722;8.110;2024-03-17T03:19:18;10.23;;;8.10;;
7471;SDS011;3777;48.722;8.110;2024-03-17T03:21:45;8.33;;;7.33;;
7471;SDS011;3777;48.722;8.110;2024-03-17T03:24:13;9.37;;;7.83;;
7471;SDS011;3777;48.722;8.110;2024-03-17T03:26:40;9.37;;;7.53;;
7471;SDS011;3777;48.722;8.110;2024-03-17T03:29:08;8.87;;;7.87;;
7471;SDS011;3777;48.722;8.110;2024-03-17T03:31:37;11.23;;;8.43;;
7471;SDS011;3777;48.722;8.110;2024-03-17T03:34:05;10.27;;;7.87;;
7471;SDS011;3777;48.722;8.110;2024-03-17T03:36:33;7.77;;;6.97;;
7471;SDS011;3777;48.722;8.110;2024-03-17T03:39:00;10.27;;;8.10;;
7471;SDS011;3777;48.722;8.110;2024-03-17T03:41:29;9.10;;;8.20;;
7471;SDS011;3777;48.722;8.110;2024-03-17T03:43:56;8.63;;;7.80;;
7471;SDS011;3777;48.722;8.110;2024-03-17T03:46:23;8.23;;;7.20;;
7471;SDS011;3777;48.722;8.110;2024-03-17T03:48:52;8.17;;;7.27;;
7471;SDS011;3777;48.722;8.110;2024-03-17T03:51:19;9.63;;;7.80;;
7471;SDS011;3777;48.722;8.110;2024-03-17T03:53:46;8.03;;;7.13;;
7471;SDS011;3777;48.722;8.110;2024-03-17T03:56:13;7.87;;;6.77;;
7471;SDS011;3777;48.722;8.110;2024-03-17T03:58:41;7.33;;;6.63;;
7471;SDS011;3777;48.722;8.110;2024-03-17T04:01:11;8.10;;;7.03;;
7471;SDS011;3777;48.722;8.110;2024-03-17T04:03:40;8.20;;;6.97;;
7471;SDS011;3777;48.722;8.110;2024-03-17T04:06:09;9.40;;;7.43;;
7471;SDS011;3777;48.722;8.110;2024-03-17T04:08:37;7.80;;;7.00;;
7471;SDS011;3777;48.722;8.110;2024-03-17T04:11:05;9.73;;;7.27;;
7471;SDS011;3777;48.722;8.110;2024-03-17T04:13:33;8.40;;;7.13;;
7471;SDS011;3777;48.722;8.110;2024-03-17T04:16:03;7.73;;;6.97;;
7471;SDS011;3777;48.722;8.110;2024-03-17T04:18:31;7.40;;;6.70;;
7471;SDS011;3777;48.722;8.110;2024-03-17T04:21:01;8.30;;;7.20;;
7471;SDS011;3777;48.722;8.110;2024-03-17T04:23:31;7.80;;;7.03;;
7471;SDS011;3777;48.722;8.110;2024-03-17T04:25:58;8.80;;;7.00;;
7471;SDS011;3777;48.722;8.110;2024-03-17T04:28:26;8.03;;;6.63;;
7471;SDS011;3777;48.722;8.110;2024-03-17T04:30:53;9.03;;;6.57;;
7471;SDS011;3777;48.722;8.110;2024-03-17T04:33:29;8.00;;;6.33;;
7471;SDS011;3777;48.722;8.110;2024-03-17T04:35:56;8.60;;;6.30;;
7471;SDS011;3777;48.722;8.110;2024-03-17T04:38:23;9.00;;;6.23;;
7471;SDS011;3777;48.722;8.110;2024-03-17T04:40:52;8.20;;;6.03;;
7471;SDS011;3777;48.722;8.110;2024-03-17T04:43:24;8.27;;;6.50;;
7471;SDS011;3777;48.722;8.110;2024-03-17T04:45:58;7.33;;;5.83;;
7471;SDS011;3777;48.722;8.110;2024-03-17T04:48:26;7.97;;;6.47;;
7471;SDS011;3777;48.722;8.110;2024-03-17T04:50:53;7.93;;;6.23;;
7471;SDS011;3777;48.722;8.110;2024-03-17T04:53:20;10.47;;;6.80;;
7471;SDS011;3777;48.722;8.110;2024-03-17T04:55:47;7.27;;;6.10;;
7471;SDS011;3777;48.722;8.110;2024-03-17T04:58:15;8.10;;;6.60;;
7471;SDS011;3777;48.722;8.110;2024-03-17T05:00:42;7.47;;;6.73;;
7471;SDS011;3777;48.722;8.110;2024-03-17T05:03:09;6.53;;;5.80;;
7471;SDS011;3777;48.722;8.110;2024-03-17T05:05:36;7.27;;;6.23;;
7471;SDS011;3777;48.722;8.110;2024-03-17T05:08:03;7.10;;;6.40;;
7471;SDS011;3777;48.722;8.110;2024-03-17T05:10:30;8.27;;;5.83;;
7471;SDS011;3777;48.722;8.110;2024-03-17T05:12:57;6.80;;;6.13;;
7471;SDS011;3777;48.722;8.110;2024-03-17T05:15:26;9.50;;;6.37;;
7471;SDS011;3777;48.722;8.110;2024-03-17T05:17:53;6.70;;;6.10;;
7471;SDS011;3777;48.722;8.110;2024-03-17T05:20:20;9.60;;;6.70;;
7471;SDS011;3777;48.722;8.110;2024-03-17T05:22:48;7.33;;;5.80;;
7471;SDS011;3777;48.722;8.110;2024-03-17T05:25:15;7.33;;;6.17;;
7471;SDS011;3777;48.722;8.110;2024-03-17T05:27:42;6.73;;;6.13;;
7471;SDS011;3777;48.722;8.110;2024-03-17T05:30:10;8.93;;;6.23;;
7471;SDS011;3777;48.722;8.110;2024-03-17T05:32:38;8.50;;;5.73;;
7471;SDS011;3777;48.722;8.110;2024-03-17T05:35:06;6.97;;;6.13;;
7471;SDS011;3777;48.722;8.110;2024-03-17T05:37:35;6.10;;;5.47;;
7471;SDS011;3777;48.722;8.110;2024-03-17T05:40:02;6.37;;;5.67;;
7471;SDS011;3777;48.722;8.110;2024-03-17T05:42:29;7.23;;;6.00;;
7471;SDS011;3777;48.722;8.110;2024-03-17T05:44:57;7.57;;;5.50;;
7471;SDS011;3777;48.722;8.110;2024-03-17T05:47:24;6.97;;;5.90;;
7471;SDS011;3777;48.722;8.110;2024-03-17T05:49:52;7.90;;;6.20;;
7471;SDS011;3777;48.722;8.110;2024-03-17T05:52:20;6.63;;;5.43;;
7471;SDS011;3777;48.722;8.110;2024-03-17T05:54:47;6.40;;;5.57;;
7471;SDS011;3777;48.722;8.110;2024-03-17T05:57:14;7.33;;;6.63;;
7471;SDS011;3777;48.722;8.110;2024-03-17T05:59:41;7.17;;;6.47;;
7471;SDS011;3777;48.722;8.110;2024-03-17T06:02:09;7.53;;;6.33;;
7471;SDS011;3777;48.722;8.110;2024-03-17T06:04:36;8.27;;;6.10;;
7471;SDS011;3777;48.722;8.110;2024-03-17T06:07:05;9.50;;;6.50;;
7471;SDS011;3777;48.722;8.110;2024-03-17T06:09:32;6.90;;;6.13;;
7471;SDS011;3777;48.722;8.110;2024-03-17T06:11:59;9.33;;;6.67;;
7471;SDS011;3777;48.722;8.110;2024-03-17T06:14:27;6.93;;;6.23;;
7471;SDS011;3777;48.722;8.110;2024-03-17T06:16:54;10.00;;;7.23;;
7471;SDS011;3777;48.722;8.110;2024-03-17T06:19:21;10.73;;;7.63;;
7471;SDS011;3777;48.722;8.110;2024-03-17T06:21:48;7.83;;;7.03;;
7471;SDS011;3777;48.722;8.110;2024-03-17T06:24:18;7.90;;;7.10;;
7471;SDS011;3777;48.722;8.110;2024-03-17T06:26:44;8.50;;;7.57;;
7471;SDS011;3777;48.722;8.110;2024-03-17T06:29:14;8.77;;;7.40;;
7471;SDS011;3777;48.722;8.110;2024-03-17T06:31:41;7.30;;;6.60;;
7471;SDS011;3777;48.722;8.110;2024-03-17T06:34:08;10.00;;;7.53;;
7471;SDS011;3777;48.722;8.110;2024-03-17T06:36:35;10.37;;;8.10;;
7471;SDS011;3777;48.722;8.110;2024-03-17T06:39:02;8.87;;;7.90;;
7471;SDS011;3777;48.722;8.110;2024-03-17T06:41:30;9.43;;;8.17;;
7471;SDS011;3777;48.722;8.110;2024-03-17T06:43:57;8.27;;;7.47;;
7471;SDS011;3777;48.722;8.110;2024-03-17T06:46:26;7.83;;;7.13;;
7471;SDS011;3777;48.722;8.110;2024-03-17T06:48:53;8.47;;;6.90;;
7471;SDS011;3777;48.722;8.110;2024-03-17T06:51:23;7.20;;;6.50;;
7471;SDS011;3777;48.722;8.110;2024-03-17T06:53:50;7.37;;;6.50;;
7471;SDS011;3777;48.722;8.110;2024-03-17T06:56:17;6.43;;;5.83;;
7471;SDS011;3777;48.722;8.110;2024-03-17T06:58:45;10.33;;;7.30;;
7471;SDS011;3777;48.722;8.110;2024-03-17T07:01:17;7.33;;;6.37;;
7471;SDS011;3777;48.722;8.110;2024-03-17T07:03:44;6.97;;;6.27;;
7471;SDS011;3777;48.722;8.110;2024-03-17T07:06:11;6.93;;;6.33;;
7471;SDS011;3777;48.722;8.110;2024-03-17T07:08:39;7.87;;;6.63;;
7471;SDS011;3777;48.722;8.110;2024-03-17T07:11:07;8.07;;;6.70;;
7471;SDS011;3777;48.722;8.110;2024-03-17T07:13:36;7.27;;;6.20;;
7471;SDS011;3777;48.722;8.110;2024-03-17T07:16:07;6.70;;;6.10;;
7471;SDS011;3777;48.722;8.110;2024-03-17T07:18:35;7.30;;;6.40;;
7471;SDS011;3777;48.722;8.110;2024-03-17T07:21:02;7.50;;;6.53;;
7471;SDS011;3777;48.722;8.110;2024-03-17T07:23:30;7.73;;;5.97;;
7471;SDS011;3777;48.722;8.110;2024-03-17T07:25:59;8.07;;;7.27;;
7471;SDS011;3777;48.722;8.110;2024-03-17T07:28:26;7.63;;;6.63;;
7471;SDS011;3777;48.722;8.110;2024-03-17T07:30:54;8.37;;;6.87;;
7471;SDS011;3777;48.722;8.110;2024-03-17T07:33:23;9.57;;;6.87;;
7471;SDS011;3777;48.722;8.110;2024-03-17T07:35:51;8.20;;;7.07;;
7471;SDS011;3777;48.722;8.110;2024-03-17T07:38:20;8.27;;;6.40;;
7471;SDS011;3777;48.722;8.110;2024-03-17T07:40:55;9.70;;;6.97;;
7471;SDS011;3777;48.722;8.110;2024-03-17T07:43:23;7.30;;;6.43;;
7471;SDS011;3777;48.722;8.110;2024-03-17T07:45:57;8.30;;;6.93;;
7471;SDS011;3777;48.722;8.110;2024-03-17T07:48:26;9.40;;;6.90;;
7471;SDS011;3777;48.722;8.110;2024-03-17T07:50:54;8.10;;;6.93;;
7471;SDS011;3777;48.722;8.110;2024-03-17T07:53:21;7.20;;;6.50;;
7471;SDS011;3777;48.722;8.110;2024-03-17T07:55:56;8.00;;;6.97;;
7471;SDS011;3777;48.722;8.110;2024-03-17T07:58:24;7.70;;;6.90;;
7471;SDS011;3777;48.722;8.110;2024-03-17T08:00:51;8.53;;;6.80;;
7471;SDS011;3777;48.722;8.110;2024-03-17T08:03:19;8.80;;;7.33;;
7471;SDS011;3777;48.722;8.110;2024-03-17T08:05:49;10.17;;;6.93;;
7471;SDS011;3777;48.722;8.110;2024-03-17T08:08:16;8.03;;;7.23;;
7471;SDS011;3777;48.722;8.110;2024-03-17T08:10:47;10.03;;;7.33;;
7471;SDS011;3777;48.722;8.110;2024-03-17T08:13:15;8.60;;;7.07;;
7471;SDS011;3777;48.722;8.110;2024-03-17T08:15:42;7.90;;;7.07;;
7471;SDS011;3777;48.722;8.110;2024-03-17T08:18:09;9.47;;;6.70;;
7471;SDS011;3777;48.722;8.110;2024-03-17T08:20:36;8.40;;;7.27;;
7471;SDS011;3777;48.722;8.110;2024-03-17T08:23:06;8.10;;;6.20;;
7471;SDS011;3777;48.722;8.110;2024-03-17T08:25:33;7.13;;;6.40;;
7471;SDS011;3777;48.722;8.110;2024-03-17T08:28:00;7.27;;;6.10;;
7471;SDS011;3777;48.722;8.110;2024-03-17T08:30:27;6.93;;;6.20;;
7471;SDS011;3777;48.722;8.110;2024-03-17T08:32:55;7.63;;;6.80;;
7471;SDS011;3777;48.722;8.110;2024-03-17T08:35:22;7.63;;;6.77;;
7471;SDS011;3777;48.722;8.110;2024-03-17T08:37:49;7.93;;;7.00;;
7471;SDS011;3777;48.722;8.110;2024-03-17T08:40:20;6.70;;;6.03;;
7471;SDS011;3777;48.722;8.110;2024-03-17T08:42:47;7.27;;;6.57;;
7471;SDS011;3777;48.722;8.110;2024-03-17T08:45:14;7.00;;;6.40;;
7471;SDS011;3777;48.722;8.110;2024-03-17T08:47:41;6.70;;;6.03;;
7471;SDS011;3777;48.722;8.110;2024-03-17T08:50:08;7.27;;;5.93;;
7471;SDS011;3777;48.722;8.110;2024-03-17T08:52:37;7.53;;;6.47;;
7471;SDS011;3777;48.722;8.110;2024-03-17T08:55:05;7.33;;;6.50;;
7471;SDS011;3777;48.722;8.110;2024-03-17T08:57:37;6.47;;;5.80;;
7471;SDS011;3777;48.722;8.110;2024-03-17T09:00:05;7.57;;;6.77;;
7471;SDS011;3777;48.722;8.110;2024-03-17T09:02:34;6.70;;;6.10;;
7471;SDS011;3777;48.722;8.110;2024-03-17T09:05:01;8.40;;;6.50;;
7471;SDS011;3777;48.722;8.110;2024-03-17T09:07:29;6.93;;;6.30;;
7471;SDS011;3777;48.722;8.110;2024-03-17T09:09:56;6.93;;;5.90;;
7471;SDS011;3777;48.722;8.110;2024-03-17T09:12:23;6.67;;;5.23;;
7471;SDS011;3777;48.722;8.110;2024-03-17T09:14:52;5.77;;;5.23;;
7471;SDS011;3777;48.722;8.110;2024-03-17T09:17:19;8.50;;;5.40;;
7471;SDS011;3777;48.722;8.110;2024-03-17T09:19:46;6.27;;;5.63;;
7471;SDS011;3777;48.722;8.110;2024-03-17T09:22:13;7.17;;;5.37;;
7471;SDS011;3777;48.722;8.110;2024-03-17T09:24:40;6.40;;;5.80;;
7471;SDS011;3777;48.722;8.110;2024-03-17T09:27:07;5.67;;;5.07;;
7471;SDS011;3777;48.722;8.110;2024-03-17T09:29:34;6.70;;;5.90;;
7471;SDS011;3777;48.722;8.110;2024-03-17T09:32:03;6.20;;;5.07;;
7471;SDS011;3777;48.722;8.110;2024-03-17T09:34:30;5.83;;;5.20;;
7471;SDS011;3777;48.722;8.110;2024-03-17T09:36:57;6.63;;;5.80;;
7471;SDS011;3777;48.722;8.110;2024-03-17T09:39:24;6.07;;;5.33;;
7471;SDS011;3777;48.722;8.110;2024-03-17T09:41:51;6.83;;;5.60;;
7471;SDS011;3777;48.722;8.110;2024-03-17T09:44:18;6.47;;;5.50;;
7471;SDS011;3777;48.722;8.110;2024-03-17T09:46:45;8.03;;;5.60;;
7471;SDS011;3777;48.722;8.110;2024-03-17T09:49:14;6.00;;;5.40;;
7471;SDS011;3777;48.722;8.110;2024-03-17T09:51:42;8.83;;;6.03;;
7471;SDS011;3777;48.722;8.110;2024-03-17T09:54:15;6.93;;;6.03;;
7471;SDS011;3777;48.722;8.110;2024-03-17T09:56:44;6.30;;;5.70;;
7471;SDS011;3777;48.722;8.110;2024-03-17T09:59:11;7.77;;;5.97;;
7471;SDS011;3777;48.722;8.110;2024-03-17T10:01:40;5.83;;;5.13;;
7471;SDS011;3777;48.722;8.110;2024-03-17T10:04:07;7.83;;;6.10;;
7471;SDS011;3777;48.722;8.110;2024-03-17T10:06:43;6.50;;;5.73;;
7471;SDS011;3777;48.722;8.110;2024-03-17T10:09:15;6.70;;;6.00;;
7471;SDS011;3777;48.722;8.110;2024-03-17T10:11:46;6.10;;;5.50;;
7471;SDS011;3777;48.722;8.110;2024-03-17T10:14:15;6.87;;;5.67;;
7471;SDS011;3777;48.722;8.110;2024-03-17T10:16:43;7.17;;;6.07;;
7471;SDS011;3777;48.722;8.110;2024-03-17T10:19:11;6.70;;;5.90;;
7471;SDS011;3777;48.722;8.110;2024-03-17T10:21:40;6.80;;;6.07;;
7471;SDS011;3777;48.722;8.110;2024-03-17T10:24:09;5.97;;;5.17;;
7471;SDS011;3777;48.722;8.110;2024-03-17T10:26:37;6.87;;;5.57;;
7471;SDS011;3777;48.722;8.110;2024-03-17T10:29:14;6.20;;;5.60;;
7471;SDS011;3777;48.722;8.110;2024-03-17T10:31:52;6.20;;;5.60;;
7471;SDS011;3777;48.722;8.110;2024-03-17T10:34:20;6.30;;;5.33;;
7471;SDS011;3777;48.722;8.110;2024-03-17T10:36:51;6.17;;;5.57;;
7471;SDS011;3777;48.722;8.110;2024-03-17T10:39:22;6.30;;;5.70;;
7471;SDS011;3777;48.722;8.110;2024-03-17T10:41:54;8.43;;;6.10;;
7471;SDS011;3777;48.722;8.110;2024-03-17T10:44:23;5.93;;;5.33;;
7471;SDS011;3777;48.722;8.110;2024-03-17T10:46:51;5.40;;;4.90;;
7471;SDS011;3777;48.722;8.110;2024-03-17T10:49:22;7.70;;;5.13;;
7471;SDS011;3777;48.722;8.110;2024-03-17T10:51:56;5.47;;;4.97;;
7471;SDS011;3777;48.722;8.110;2024-03-17T10:54:25;6.05;;;4.95;;
7471;SDS011;3777;48.722;8.110;2024-03-17T10:56:53;6.28;;;5.00;;
7471;SDS011;3777;48.722;8.110;2024-03-17T10:59:22;5.13;;;4.60;;
7471;SDS011;3777;48.722;8.110;2024-03-17T11:01:57;5.20;;;4.70;;
7471;SDS011;3777;48.722;8.110;2024-03-17T11:04:26;5.82;;;4.97;;
7471;SDS011;3777;48.722;8.110;2024-03-17T11:06:53;5.93;;;5.40;;
7471;SDS011;3777;48.722;8.110;2024-03-17T11:09:23;4.70;;;4.25;;
7471;SDS011;3777;48.722;8.110;2024-03-17T11:11:51;5.67;;;4.87;;
7471;SDS011;3777;48.722;8.110;2024-03-17T11:14:19;6.18;;;5.00;;
7471;SDS011;3777;48.722;8.110;2024-03-17T11:16:47;6.17;;;5.57;;
7471;SDS011;3777;48.722;8.110;2024-03-17T11:19:16;6.00;;;5.47;;
7471;SDS011;3777;48.722;8.110;2024-03-17T11:21:43;6.83;;;5.53;;
7471;SDS011;3777;48.722;8.110;2024-03-17T11:24:21;5.80;;;5.23;;
7471;SDS011;3777;48.722;8.110;2024-03-17T11:26:48;7.13;;;5.20;;
7471;SDS011;3777;48.722;8.110;2024-03-17T11:29:27;5.93;;;4.70;;
7471;SDS011;3777;48.722;8.110;2024-03-17T11:31:57;8.73;;;5.93;;
7471;SDS011;3777;48.722;8.110;2024-03-17T11:34:25;6.43;;;5.47;;
7471;SDS011;3777;48.722;8.110;2024-03-17T11:36:56;6.47;;;5.00;;
7471;SDS011;3777;48.722;8.110;2024-03-17T11:42:31;6.20;;;4.80;;
7471;SDS011;3777;48.722;8.110;2024-03-17T11:44:58;5.40;;;4.90;;
7471;SDS011;3777;48.722;8.110;2024-03-17T11:47:38;5.17;;;4.67;;
7471;SDS011;3777;48.722;8.110;2024-03-17T11:50:06;6.67;;;4.80;;
7471;SDS011;3777;48.722;8.110;2024-03-17T11:52:35;5.60;;;5.00;;
7471;SDS011;3777;48.722;8.110;2024-03-17T11:55:01;7.57;;;5.30;;
7471;SDS011;3777;48.722;8.110;2024-03-17T11:57:28;5.73;;;5.00;;
7471;SDS011;3777;48.722;8.110;2024-03-17T11:59:56;7.30;;;5.20;;
7471;SDS011;3777;48.722;8.110;2024-03-17T12:02:24;5.03;;;4.53;;
7471;SDS011;3777;48.722;8.110;2024-03-17T12:04:51;6.07;;;5.00;;
7471;SDS011;3777;48.722;8.110;2024-03-17T12:07:20;6.93;;;4.90;;
7471;SDS011;3777;48.722;8.110;2024-03-17T12:09:48;6.17;;;4.70;;
7471;SDS011;3777;48.722;8.110;2024-03-17T12:12:17;7.03;;;4.83;;
7471;SDS011;3777;48.722;8.110;2024-03-17T12:14:45;5.77;;;4.60;;
7471;SDS011;3777;48.722;8.110;2024-03-17T12:17:14;5.60;;;4.93;;
7471;SDS011;3777;48.722;8.110;2024-03-17T12:19:45;6.63;;;4.47;;
7471;SDS011;3777;48.722;8.110;2024-03-17T12:22:15;5.60;;;4.93;;
7471;SDS011;3777;48.722;8.110;2024-03-17T12:24:43;5.53;;;4.90;;
7471;SDS011;3777;48.722;8.110;2024-03-17T12:27:15;5.10;;;4.60;;
7471;SDS011;3777;48.722;8.110;2024-03-17T12:29:43;7.00;;;4.90;;
7471;SDS011;3777;48.722;8.110;2024-03-17T12:32:13;5.80;;;4.90;;
7471;SDS011;3777;48.722;8.110;2024-03-17T12:34:41;6.43;;;4.60;;
7471;SDS011;3777;48.722;8.110;2024-03-17T12:37:11;6.07;;;4.40;;
7471;SDS011;3777;48.722;8.110;2024-03-17T12:39:41;5.93;;;3.90;;
7471;SDS011;3777;48.722;8.110;2024-03-17T12:42:09;6.77;;;4.23;;
7471;SDS011;3777;48.722;8.110;2024-03-17T12:44:36;6.40;;;4.50;;
7471;SDS011;3777;48.722;8.110;2024-03-17T12:47:08;7.20;;;4.50;;
7471;SDS011;3777;48.722;8.110;2024-03-17T12:49:43;4.83;;;4.03;;
7471;SDS011;3777;48.722;8.110;2024-03-17T12:52:16;5.40;;;4.30;;
7471;SDS011;3777;48.722;8.110;2024-03-17T12:54:44;4.87;;;3.90;;
7471;SDS011;3777;48.722;8.110;2024-03-17T12:57:19;6.60;;;4.20;;
7471;SDS011;3777;48.722;8.110;2024-03-17T13:00:16;5.97;;;4.50;;
7471;SDS011;3777;48.722;8.110;2024-03-17T13:03:00;6.73;;;4.00;;
7471;SDS011;3777;48.722;8.110;2024-03-17T13:05:28;5.27;;;3.70;;
7471;SDS011;3777;48.722;8.110;2024-03-17T13:07:55;4.55;;;3.90;;
7471;SDS011;3777;48.722;8.110;2024-03-17T13:10:23;5.32;;;4.32;;
7471;SDS011;3777;48.722;8.110;2024-03-17T13:12:58;5.90;;;4.05;;
7471;SDS011;3777;48.722;8.110;2024-03-17T13:15:26;6.43;;;3.97;;
7471;SDS011;3777;48.722;8.110;2024-03-17T13:17:56;9.27;;;7.37;;
7471;SDS011;3777;48.722;8.110;2024-03-17T13:20:25;13.20;;;11.40;;
7471;SDS011;3777;48.722;8.110;2024-03-17T13:22:53;45.83;;;31.85;;
7471;SDS011;3777;48.722;8.110;2024-03-17T13:25:20;50.97;;;34.65;;
7471;SDS011;3777;48.722;8.110;2024-03-17T13:27:49;6.13;;;4.90;;
7471;SDS011;3777;48.722;8.110;2024-03-17T13:30:17;4.70;;;3.75;;
7471;SDS011;3777;48.722;8.110;2024-03-17T13:32:47;4.93;;;4.47;;
7471;SDS011;3777;48.722;8.110;2024-03-17T13:35:21;4.65;;;3.60;;
7471;SDS011;3777;48.722;8.110;2024-03-17T13:37:50;6.78;;;3.70;;
7471;SDS011;3777;48.722;8.110;2024-03-17T13:40:19;5.88;;;3.65;;
7471;SDS011;3777;48.722;8.110;2024-03-17T13:42:48;5.18;;;3.40;;
7471;SDS011;3777;48.722;8.110;2024-03-17T13:45:16;7.05;;;4.13;;
7471;SDS011;3777;48.722;8.110;2024-03-17T13:47:45;4.03;;;3.63;;
7471;SDS011;3777;48.722;8.110;2024-03-17T13:50:15;5.27;;;3.80;;
7471;SDS011;3777;48.722;8.110;2024-03-17T13:52:42;5.50;;;3.53;;
7471;SDS011;3777;48.722;8.110;2024-03-17T13:55:13;3.87;;;3.20;;
7471;SDS011;3777;48.722;8.110;2024-03-17T13:57:41;4.93;;;3.60;;
7471;SDS011;3777;48.722;8.110;2024-03-17T14:00:09;5.47;;;3.60;;
7471;SDS011;3777;48.722;8.110;2024-03-17T14:02:41;6.97;;;4.10;;
7471;SDS011;3777;48.722;8.110;2024-03-17T14:05:11;3.88;;;3.45;;
7471;SDS011;3777;48.722;8.110;2024-03-17T14:07:39;5.77;;;4.33;;
7471;SDS011;3777;48.722;8.110;2024-03-17T14:10:06;5.10;;;4.00;;
7471;SDS011;3777;48.722;8.110;2024-03-17T14:12:36;5.47;;;3.43;;
7471;SDS011;3777;48.722;8.110;2024-03-17T14:15:04;3.73;;;3.27;;
7471;SDS011;3777;48.722;8.110;2024-03-17T14:17:32;4.97;;;3.70;;
7471;SDS011;3777;48.722;8.110;2024-03-17T14:19:59;5.03;;;3.40;;
7471;SDS011;3777;48.722;8.110;2024-03-17T14:22:26;4.43;;;3.57;;
7471;SDS011;3777;48.722;8.110;2024-03-17T14:24:53;5.93;;;3.53;;
7471;SDS011;3777;48.722;8.110;2024-03-17T14:27:20;3.67;;;2.90;;
7471;SDS011;3777;48.722;8.110;2024-03-17T14:29:49;3.30;;;3.00;;
7471;SDS011;3777;48.722;8.110;2024-03-17T14:32:17;4.73;;;2.97;;
7471;SDS011;3777;48.722;8.110;2024-03-17T14:34:44;4.60;;;3.00;;
7471;SDS011;3777;48.722;8.110;2024-03-17T14:37:13;5.20;;;2.60;;
7471;SDS011;3777;48.722;8.110;2024-03-17T14:39:40;4.20;;;2.90;;
7471;SDS011;3777;48.722;8.110;2024-03-17T14:42:07;3.00;;;2.60;;
7471;SDS011;3777;48.722;8.110;2024-03-17T14:44:35;4.73;;;2.87;;
7471;SDS011;3777;48.722;8.110;2024-03-17T14:47:04;5.23;;;2.70;;
7471;SDS011;3777;48.722;8.110;2024-03-17T14:49:31;3.97;;;2.77;;
7471;SDS011;3777;48.722;8.110;2024-03-17T14:51:59;3.67;;;2.50;;
7471;SDS011;3777;48.722;8.110;2024-03-17T14:54:27;4.87;;;2.90;;
7471;SDS011;3777;48.722;8.110;2024-03-17T14:56:54;5.50;;;2.70;;
7471;SDS011;3777;48.722;8.110;2024-03-17T14:59:21;4.40;;;2.80;;
7471;SDS011;3777;48.722;8.110;2024-03-17T15:01:48;5.40;;;2.77;;
7471;SDS011;3777;48.722;8.110;2024-03-17T15:04:16;4.13;;;2.17;;
7471;SDS011;3777;48.722;8.110;2024-03-17T15:06:44;3.73;;;2.53;;
7471;SDS011;3777;48.722;8.110;2024-03-17T15:09:11;4.17;;;2.70;;
7471;SDS011;3777;48.722;8.110;2024-03-17T15:11:38;3.00;;;2.50;;
7471;SDS011;3777;48.722;8.110;2024-03-17T15:14:05;3.90;;;2.70;;
7471;SDS011;3777;48.722;8.110;2024-03-17T15:16:36;5.63;;;2.80;;
7471;SDS011;3777;48.722;8.110;2024-03-17T15:19:04;4.93;;;2.60;;
7471;SDS011;3777;48.722;8.110;2024-03-17T15:21:33;4.37;;;2.53;;
7471;SDS011;3777;48.722;8.110;2024-03-17T15:24:00;3.63;;;2.63;;